Time;durP1;ratioP1;P1;durP2;ratioP2;P2;SDS_P1;SDS_P2;PMS_P1;PMS_P2;Temp;Humidity;BMP_temperature;BMP_pressure;BME280_temperature;BME280_humidity;BME280_pressure;Samples;Min_cycle;Max_cycle;Signal;HPM_P1;HPM_P2
2022/06/18 00:00:13;;;;;;;1.30;1.20;;;17.40;99.90;;;;;;5032023;28;20723;-77
2022/06/18 00:02:40;;;;;;;2.70;1.27;;;17.50;99.90;;;;;;5015729;28;20174;-77
2022/06/18 00:05:07;;;;;;;1.67;1.40;;;17.50;99.90;;;;;;5015780;28;20222;-77
2022/06/18 00:07:37;;;;;;;1.20;1.10;;;17.30;99.90;;;;;;5033466;28;20177;-77
2022/06/18 00:10:04;;;;;;;1.37;1.27;;;17.30;99.90;;;;;;5016241;28;20193;-77
2022/06/18 00:15:22;;;;;;;1.40;1.30;;;17.20;99.90;;;;;;5032467;28;20276;-77
2022/06/18 00:17:48;;;;;;;1.43;1.33;;;17.20;99.90;;;;;;5015735;28;20264;-77
2022/06/18 00:20:16;;;;;;;1.17;1.00;;;17.10;99.90;;;;;;5015726;28;20587;-77
2022/06/18 00:22:47;;;;;;;1.30;1.20;;;17.30;99.90;;;;;;5032569;28;20257;-77
2022/06/18 00:25:25;;;;;;;1.30;1.20;;;17.30;99.90;;;;;;5031583;28;20615;-77
2022/06/18 00:27:51;;;;;;;1.40;1.30;;;17.20;99.90;;;;;;5033227;28;20269;-77
2022/06/18 00:30:19;;;;;;;1.40;1.20;;;17.20;99.90;;;;;;5032234;28;20246;-77
2022/06/18 00:32:45;;;;;;;1.93;1.50;;;17.10;99.90;;;;;;5031297;28;20182;-77
2022/06/18 00:35:12;;;;;;;1.50;1.40;;;17.00;99.90;;;;;;5015401;28;20206;-77
2022/06/18 00:37:38;;;;;;;1.73;1.20;;;17.00;99.90;;;;;;5015521;28;20735;-77
2022/06/18 00:40:21;;;;;;;2.70;1.40;;;17.00;99.90;;;;;;5031798;28;20215;-77
2022/06/18 00:42:46;;;;;;;1.40;1.20;;;16.90;99.90;;;;;;5031784;28;20166;-77
2022/06/18 00:45:26;;;;;;;1.97;1.20;;;16.90;99.90;;;;;;5015249;28;20677;-77
2022/06/18 00:48:13;;;;;;;1.30;1.20;;;16.80;99.90;;;;;;5032015;28;20702;-77
2022/06/18 00:51:13;;;;;;;2.83;1.30;;;16.90;99.90;;;;;;5048130;28;20262;-77
2022/06/18 00:53:49;;;;;;;1.57;1.20;;;16.90;99.90;;;;;;5032034;28;20217;-77
2022/06/18 00:56:30;;;;;;;1.50;1.40;;;17.00;99.90;;;;;;5031743;28;20182;-77
2022/06/18 00:59:06;;;;;;;1.60;1.30;;;17.00;99.90;;;;;;5031897;28;20197;-77
2022/06/18 01:01:37;;;;;;;1.67;1.33;;;17.00;99.90;;;;;;5031570;28;20182;-77
2022/06/18 01:04:25;;;;;;;1.53;1.40;;;16.90;99.90;;;;;;5031523;28;20762;-77
2022/06/18 01:07:01;;;;;;;1.37;1.27;;;16.90;99.90;;;;;;5031449;28;20178;-77
2022/06/18 01:09:27;;;;;;;1.30;1.20;;;16.80;99.90;;;;;;5015225;28;20189;-77
2022/06/18 01:11:54;;;;;;;1.40;1.23;;;16.80;99.90;;;;;;5031493;28;20185;-77
2022/06/18 01:14:21;;;;;;;1.40;1.30;;;16.80;99.90;;;;;;5031235;28;20198;-77
2022/06/18 01:16:47;;;;;;;1.30;1.20;;;16.80;99.90;;;;;;5015117;28;20718;-77
2022/06/18 01:19:24;;;;;;;2.00;1.30;;;16.60;99.90;;;;;;5014790;28;20214;-77
2022/06/18 01:22:26;;;;;;;1.60;1.50;;;16.60;99.90;;;;;;5032233;28;20518;-77
2022/06/18 01:24:51;;;;;;;1.47;1.37;;;16.50;99.90;;;;;;5047839;28;20198;-77
2022/06/18 01:27:17;;;;;;;1.70;1.50;;;16.40;99.90;;;;;;5031357;28;20567;-77
2022/06/18 01:29:43;;;;;;;2.40;1.50;;;16.30;99.90;;;;;;5031147;28;20185;-77
2022/06/18 01:32:12;;;;;;;1.40;1.30;;;16.30;99.90;;;;;;5031136;28;20536;-77
2022/06/18 01:34:38;;;;;;;2.10;1.50;;;16.20;99.90;;;;;;5031499;28;20232;-77
2022/06/18 01:37:05;;;;;;;1.60;1.40;;;16.40;99.90;;;;;;5031313;28;20256;-77
2022/06/18 01:39:35;;;;;;;2.83;1.40;;;16.40;99.90;;;;;;5014522;28;20214;-77
2022/06/18 01:42:26;;;;;;;1.53;1.43;;;16.30;99.90;;;;;;5015072;28;20179;-77
2022/06/18 01:45:16;;;;;;;1.97;1.40;;;16.30;99.90;;;;;;5017972;28;20202;-77
2022/06/18 01:48:00;;;;;;;2.13;1.50;;;16.10;99.90;;;;;;5031678;28;20186;-77
2022/06/18 01:50:38;;;;;;;1.60;1.50;;;16.20;99.90;;;;;;5035093;28;20202;-77
2022/06/18 01:53:24;;;;;;;1.60;1.50;;;16.20;99.90;;;;;;5034910;28;20182;-77
2022/06/18 01:56:00;;;;;;;1.47;1.37;;;16.20;99.90;;;;;;5035028;28;20193;-77
2022/06/18 01:58:39;;;;;;;1.57;1.47;;;16.30;99.90;;;;;;5034964;28;20232;-77
2022/06/18 02:01:09;;;;;;;1.50;1.40;;;16.30;99.90;;;;;;5018527;28;20182;-77
2022/06/18 02:03:36;;;;;;;1.50;1.40;;;16.10;99.90;;;;;;5036340;28;20194;-77
2022/06/18 02:06:03;;;;;;;1.50;1.40;;;16.20;99.90;;;;;;5018422;28;20178;-78
2022/06/18 02:08:29;;;;;;;1.87;1.50;;;16.30;99.90;;;;;;5034548;28;20220;-78
2022/06/18 02:10:59;;;;;;;1.50;1.40;;;16.30;99.90;;;;;;5017756;28;20202;-78
2022/06/18 02:13:31;;;;;;;1.50;1.40;;;16.40;99.90;;;;;;5034210;28;20248;-78
2022/06/18 02:15:59;;;;;;;1.47;1.37;;;16.40;99.90;;;;;;5034141;28;20649;-78
2022/06/18 02:18:27;;;;;;;2.10;1.37;;;16.30;99.90;;;;;;5034561;28;20213;-78
2022/06/18 02:20:56;;;;;;;1.60;1.50;;;16.20;99.90;;;;;;5034299;28;20182;-78
2022/06/18 02:23:23;;;;;;;1.50;1.40;;;16.20;99.90;;;;;;5033669;28;20221;-78
2022/06/18 02:25:49;;;;;;;1.43;1.33;;;16.10;99.90;;;;;;5034009;28;20182;-78
2022/06/18 02:28:24;;;;;;;2.00;1.53;;;16.10;99.90;;;;;;5033921;28;20181;-78
2022/06/18 02:30:55;;;;;;;1.43;1.33;;;16.20;99.90;;;;;;5034104;28;20174;-78
2022/06/18 02:33:34;;;;;;;1.60;1.50;;;16.30;99.90;;;;;;5034813;28;20196;-78
2022/06/18 02:36:11;;;;;;;2.00;1.47;;;16.30;99.90;;;;;;5034984;28;20180;-78
2022/06/18 02:38:36;;;;;;;1.60;1.50;;;16.40;99.90;;;;;;5033674;28;20212;-78
2022/06/18 02:41:02;;;;;;;1.47;1.37;;;16.30;99.90;;;;;;5017431;28;20178;-78
2022/06/18 02:43:28;;;;;;;1.53;1.43;;;16.40;99.90;;;;;;5016870;28;20198;-78
2022/06/18 02:45:56;;;;;;;1.63;1.47;;;16.50;99.90;;;;;;5033681;28;20194;-78
2022/06/18 02:48:27;;;;;;;1.90;1.40;;;16.50;99.90;;;;;;5033770;28;20733;-78
2022/06/18 02:50:55;;;;;;;1.87;1.60;;;16.50;99.90;;;;;;5017060;28;20262;-78
2022/06/18 02:53:20;;;;;;;1.50;1.40;;;16.40;99.90;;;;;;5049971;28;20198;-78
2022/06/18 02:55:53;;;;;;;1.77;1.40;;;16.40;99.90;;;;;;5016974;28;20232;-78
2022/06/18 02:58:26;;;;;;;1.50;1.40;;;16.50;99.90;;;;;;5033522;28;20214;-78
2022/06/18 03:00:55;;;;;;;1.73;1.53;;;16.40;99.90;;;;;;5017762;28;20554;-78
2022/06/18 03:03:27;;;;;;;1.93;1.60;;;16.30;99.90;;;;;;5032892;28;20244;-78
2022/06/18 03:05:52;;;;;;;1.60;1.50;;;16.10;99.90;;;;;;5033458;28;20638;-78
2022/06/18 03:08:20;;;;;;;1.60;1.50;;;16.20;99.90;;;;;;5017097;28;20216;-78
2022/06/18 03:13:30;;;;;;;1.70;1.60;;;16.30;99.90;;;;;;5034421;28;20201;-78
2022/06/18 03:15:56;;;;;;;5.17;1.77;;;16.20;99.90;;;;;;5016639;28;20187;-78
2022/06/18 03:18:25;;;;;;;2.27;1.60;;;16.20;99.90;;;;;;5032971;28;20676;-78
2022/06/18 03:21:09;;;;;;;1.70;1.33;;;16.30;99.90;;;;;;5033989;28;20186;-78
2022/06/18 03:23:35;;;;;;;1.70;1.60;;;16.40;99.90;;;;;;5032729;28;20198;-78
2022/06/18 03:26:02;;;;;;;1.87;1.53;;;16.30;99.90;;;;;;5033762;28;20174;-78
2022/06/18 03:28:28;;;;;;;1.70;1.60;;;16.10;99.90;;;;;;5032783;28;20529;-78
2022/06/18 03:30:54;;;;;;;1.70;1.60;;;16.00;99.90;;;;;;5033143;28;20182;-78
2022/06/18 03:33:20;;;;;;;1.70;1.60;;;15.90;99.90;;;;;;5032529;28;20722;-78
2022/06/18 03:35:48;;;;;;;1.60;1.50;;;15.80;99.90;;;;;;5032564;28;20535;-78
2022/06/18 03:38:15;;;;;;;1.70;1.60;;;15.90;99.90;;;;;;5032702;28;20261;-78
2022/06/18 03:40:43;;;;;;;2.30;1.70;;;16.10;99.90;;;;;;5032703;28;20277;-78
2022/06/18 03:43:09;;;;;;;1.70;1.60;;;16.10;99.90;;;;;;5032326;28;20178;-78
2022/06/18 03:45:44;;;;;;;1.73;1.63;;;16.10;99.90;;;;;;5032526;28;20174;-78
2022/06/18 03:48:29;;;;;;;2.10;1.70;;;16.20;99.90;;;;;;5032894;28;20175;-78
2022/06/18 03:50:55;;;;;;;1.83;1.50;;;16.20;99.90;;;;;;5033794;28;20581;-78
2022/06/18 03:53:21;;;;;;;1.80;1.70;;;16.10;99.90;;;;;;5032269;28;20745;-78
2022/06/18 03:55:47;;;;;;;1.73;1.43;;;16.00;99.90;;;;;;5032471;28;20205;-78
2022/06/18 03:58:14;;;;;;;1.60;1.50;;;15.90;99.90;;;;;;5032221;28;20197;-78
2022/06/18 04:00:39;;;;;;;1.63;1.43;;;15.80;99.90;;;;;;5032127;28;20596;-78
2022/06/18 04:03:05;;;;;;;1.70;1.60;;;15.80;99.90;;;;;;5015692;28;20182;-78
2022/06/18 04:05:32;;;;;;;1.83;1.60;;;15.80;99.90;;;;;;5015471;28;20332;-78
2022/06/18 04:07:58;;;;;;;2.03;1.60;;;15.80;99.90;;;;;;5031999;28;20235;-78
2022/06/18 04:10:24;;;;;;;1.60;1.50;;;15.90;99.90;;;;;;5015584;28;20187;-78
2022/06/18 04:12:49;;;;;;;2.10;1.50;;;16.00;99.90;;;;;;5015583;28;20188;-78
2022/06/18 04:15:15;;;;;;;1.77;1.67;;;16.10;99.90;;;;;;5032132;28;20256;-78
2022/06/18 04:17:42;;;;;;;1.70;1.60;;;16.10;99.90;;;;;;5015660;28;20188;-78
2022/06/18 04:20:19;;;;;;;1.87;1.60;;;16.10;99.90;;;;;;5015546;28;20305;-78
2022/06/18 04:22:44;;;;;;;1.67;1.57;;;16.20;99.90;;;;;;5031575;28;20649;-78
2022/06/18 04:25:10;;;;;;;1.80;1.70;;;16.30;99.90;;;;;;5015068;28;20248;-78
2022/06/18 04:27:35;;;;;;;1.73;1.63;;;16.30;99.90;;;;;;5031756;28;20584;-78
2022/06/18 04:30:01;;;;;;;1.67;1.57;;;16.30;99.90;;;;;;5032253;28;20182;-78
2022/06/18 04:32:27;;;;;;;1.60;1.50;;;16.40;99.90;;;;;;5031777;28;20244;-78
2022/06/18 04:34:52;;;;;;;1.60;1.50;;;16.40;99.90;;;;;;5015344;28;20202;-78
2022/06/18 04:37:18;;;;;;;1.70;1.60;;;16.50;99.90;;;;;;5015121;28;20182;-78
2022/06/18 04:39:43;;;;;;;1.63;1.53;;;16.50;99.90;;;;;;5031771;28;20218;-78
2022/06/18 04:42:09;;;;;;;1.77;1.67;;;16.50;99.90;;;;;;5014787;28;20227;-78
2022/06/18 04:44:34;;;;;;;2.20;1.60;;;16.50;99.90;;;;;;5031843;28;20317;-78
2022/06/18 04:47:00;;;;;;;1.83;1.60;;;16.60;99.90;;;;;;5015349;28;20278;-78
2022/06/18 04:49:25;;;;;;;3.10;1.67;;;16.60;99.90;;;;;;5015303;28;20182;-78
2022/06/18 04:51:51;;;;;;;1.70;1.60;;;16.60;99.90;;;;;;5015088;28;20186;-78
2022/06/18 04:54:17;;;;;;;1.80;1.70;;;16.70;99.90;;;;;;5015145;28;20269;-78
2022/06/18 04:56:42;;;;;;;1.67;1.57;;;16.70;99.90;;;;;;5014945;28;20178;-78
2022/06/18 04:59:08;;;;;;;1.70;1.60;;;16.80;99.90;;;;;;5014756;28;20214;-78
2022/06/18 05:01:33;;;;;;;1.70;1.60;;;16.80;99.90;;;;;;5014913;28;20175;-78
2022/06/18 05:03:59;;;;;;;2.77;1.60;;;17.00;99.90;;;;;;5014825;28;20218;-78
2022/06/18 05:06:26;;;;;;;1.60;1.50;;;17.10;99.90;;;;;;5014627;28;20210;-78
2022/06/18 05:08:51;;;;;;;1.57;1.47;;;17.70;99.90;;;;;;5032292;28;20261;-78
2022/06/18 05:11:17;;;;;;;1.77;1.30;;;18.60;99.90;;;;;;5014592;28;20269;-78
2022/06/18 05:13:43;;;;;;;2.77;1.40;;;19.40;99.90;;;;;;5030846;28;20209;-78
2022/06/18 05:16:09;;;;;;;3.13;1.50;;;19.70;99.90;;;;;;5031195;28;20182;-78
2022/06/18 05:18:35;;;;;;;2.00;1.80;;;19.70;99.90;;;;;;5013703;28;20209;-78
2022/06/18 05:21:02;;;;;;;1.90;1.53;;;19.60;99.90;;;;;;5031311;28;20178;-79
2022/06/18 05:23:28;;;;;;;1.60;1.50;;;19.70;99.90;;;;;;5031782;28;20186;-78
2022/06/18 05:25:59;;;;;;;1.90;1.50;;;20.00;99.90;;;;;;5014361;28;20178;-77
2022/06/18 05:28:25;;;;;;;1.50;1.40;;;20.00;99.90;;;;;;5030975;28;20178;-77
2022/06/18 05:30:51;;;;;;;2.07;1.30;;;20.00;99.90;;;;;;5030951;28;20182;-78
2022/06/18 05:33:17;;;;;;;1.90;1.27;;;20.00;99.90;;;;;;5030918;28;20219;-79
2022/06/18 05:35:44;;;;;;;2.27;1.37;;;20.10;99.90;;;;;;5031045;28;20258;-79
2022/06/18 05:38:20;;;;;;;2.40;1.30;;;20.40;99.90;;;;;;5030973;28;20649;-79
2022/06/18 05:40:46;;;;;;;1.50;1.30;;;20.40;99.90;;;;;;5014828;28;20174;-78
2022/06/18 05:43:12;;;;;;;1.42;1.20;;;20.50;99.90;;;;;;5015354;28;20178;-79
2022/06/18 05:45:38;;;;;;;2.83;1.40;;;20.60;99.90;;;;;;5015087;28;20204;-78
2022/06/18 05:48:05;;;;;;;1.75;1.30;;;20.70;99.90;;;;;;5031225;28;20194;-79
2022/06/18 05:50:30;;;;;;;1.63;1.40;;;20.90;99.90;;;;;;5031396;28;20317;-79
2022/06/18 05:52:56;;;;;;;1.40;1.30;;;21.20;99.90;;;;;;5014582;28;20212;-78
2022/06/18 05:55:22;;;;;;;1.85;1.30;;;21.30;99.90;;;;;;5014458;28;20349;-78
2022/06/18 05:57:54;;;;;;;1.52;1.30;;;21.50;99.90;;;;;;5014323;28;20559;-78
2022/06/18 06:00:23;;;;;;;2.45;1.40;;;21.60;99.90;;;;;;5031776;28;20202;-78
2022/06/18 06:02:48;;;;;;;2.33;1.50;;;21.70;99.90;;;;;;5030169;28;20587;-78
2022/06/18 06:05:15;;;;;;;2.38;1.48;;;21.90;99.90;;;;;;5030577;28;20762;-78
2022/06/18 06:07:42;;;;;;;2.00;1.60;;;22.00;99.90;;;;;;5030609;28;20178;-79
2022/06/18 06:13:14;;;;;;;2.88;1.38;;;22.10;99.90;;;;;;5032016;28;20323;-78
2022/06/18 06:15:40;;;;;;;1.50;1.40;;;22.40;99.90;;;;;;5031759;28;20261;-78
2022/06/18 06:18:07;;;;;;;3.00;1.40;;;22.40;99.90;;;;;;5031475;28;20252;-78
2022/06/18 06:20:37;;;;;;;1.73;1.60;;;22.50;99.10;;;;;;5030621;28;20181;-78
2022/06/18 06:23:04;;;;;;;1.63;1.52;;;22.60;99.00;;;;;;5030656;28;20324;-78
2022/06/18 06:25:30;;;;;;;2.45;1.20;;;22.70;98.70;;;;;;5030047;28;20182;-78
2022/06/18 06:27:55;;;;;;;1.50;1.40;;;22.80;98.40;;;;;;5013777;28;20190;-78
2022/06/18 06:30:21;;;;;;;1.50;1.40;;;22.90;98.90;;;;;;5015967;28;20276;-77
2022/06/18 06:32:47;;;;;;;2.42;1.60;;;23.00;98.20;;;;;;5017285;28;20183;-78
2022/06/18 06:35:12;;;;;;;3.03;1.48;;;23.00;98.30;;;;;;5033747;28;20206;-78
2022/06/18 06:37:38;;;;;;;1.60;1.50;;;23.10;97.20;;;;;;5033791;28;20178;-78
2022/06/18 06:40:05;;;;;;;2.20;1.50;;;23.20;97.80;;;;;;5033685;28;20237;-77
2022/06/18 06:42:42;;;;;;;1.60;1.50;;;23.30;96.60;;;;;;5016917;28;20237;-78
2022/06/18 06:45:12;;;;;;;2.13;1.40;;;23.40;96.70;;;;;;5033553;28;20700;-77
2022/06/18 06:47:38;;;;;;;4.40;1.88;;;23.50;96.50;;;;;;5033492;28;20180;-77
2022/06/18 06:50:04;;;;;;;2.22;1.50;;;23.50;96.10;;;;;;5033766;28;20242;-77
2022/06/18 06:52:29;;;;;;;1.73;1.40;;;23.60;95.80;;;;;;5016821;28;20175;-77
2022/06/18 06:57:21;;;;;;;3.67;1.67;;;23.70;95.40;;;;;;5016812;28;20573;-77
2022/06/18 06:57:43;;;;;;;2.08;1.40;;;23.80;95.90;;;;;;5034351;28;20633;-77
2022/06/18 07:00:11;;;;;;;1.98;1.63;;;23.80;94.70;;;;;;5033698;28;20229;-77
2022/06/18 07:02:36;;;;;;;3.08;1.65;;;23.80;94.70;;;;;;5033008;28;20178;-76
2022/06/18 07:05:03;;;;;;;1.92;1.42;;;23.90;95.20;;;;;;5017193;28;20206;-76
2022/06/18 07:07:30;;;;;;;2.33;1.50;;;24.10;94.20;;;;;;5016665;28;20186;-76
2022/06/18 07:09:55;;;;;;;3.47;1.50;;;24.10;93.90;;;;;;5016846;28;20182;-76
2022/06/18 07:12:21;;;;;;;2.03;1.42;;;24.20;94.00;;;;;;5033026;28;20683;-76
2022/06/18 07:14:47;;;;;;;1.98;1.52;;;24.30;94.30;;;;;;5016467;28;20267;-76
2022/06/18 07:17:17;;;;;;;1.67;1.58;;;24.40;93.10;;;;;;5016605;28;20189;-76
2022/06/18 07:19:42;;;;;;;2.05;1.50;;;24.60;92.80;;;;;;5032759;28;20336;-76
2022/06/18 07:22:10;;;;;;;3.80;1.40;;;24.60;92.60;;;;;;5032590;28;20236;-76
2022/06/18 07:24:37;;;;;;;1.60;1.48;;;24.70;93.00;;;;;;5032847;28;20194;-76
2022/06/18 07:27:04;;;;;;;1.70;1.60;;;24.80;92.10;;;;;;5032485;28;20179;-77
2022/06/18 07:29:30;;;;;;;1.70;1.48;;;24.90;91.80;;;;;;5033964;28;20652;-76
2022/06/18 07:32:07;;;;;;;2.22;1.42;;;24.90;92.00;;;;;;5032597;28;20564;-76
2022/06/18 07:34:33;;;;;;;2.50;1.48;;;25.00;92.10;;;;;;5033720;28;20233;-76
2022/06/18 07:36:58;;;;;;;2.53;1.60;;;25.10;91.80;;;;;;5016348;28;20206;-76
2022/06/18 07:39:24;;;;;;;1.90;1.60;;;25.20;91.20;;;;;;5016219;28;20299;-76
2022/06/18 07:41:53;;;;;;;2.75;1.60;;;25.30;91.30;;;;;;5031352;28;20217;-76
2022/06/18 07:44:20;;;;;;;1.63;1.40;;;25.40;90.90;;;;;;5015962;28;20252;-77
2022/06/18 07:46:48;;;;;;;3.50;1.50;;;25.60;90.90;;;;;;5032412;28;20179;-76
2022/06/18 07:49:15;;;;;;;2.28;1.60;;;25.70;91.10;;;;;;5032274;28;20186;-77
2022/06/18 07:51:41;;;;;;;2.25;1.50;;;25.80;90.80;;;;;;5032511;28;20170;-77
2022/06/18 07:54:07;;;;;;;4.00;1.80;;;25.90;89.60;;;;;;5032570;28;20205;-77
2022/06/18 07:56:32;;;;;;;2.10;1.40;;;25.90;86.90;;;;;;5032091;28;20236;-77
2022/06/18 07:58:59;;;;;;;3.10;1.27;;;26.00;86.80;;;;;;5032213;28;20273;-78
2022/06/18 08:01:25;;;;;;;1.50;1.40;;;26.10;86.10;;;;;;5015673;28;20186;-77
2022/06/18 08:03:51;;;;;;;3.10;1.73;;;26.20;86.10;;;;;;5032541;28;20210;-77
2022/06/18 08:06:16;;;;;;;2.28;1.40;;;26.40;84.40;;;;;;5033321;28;20174;-77
2022/06/18 08:08:42;;;;;;;2.05;1.50;;;26.50;83.00;;;;;;5031933;28;20239;-77
2022/06/18 08:11:12;;;;;;;1.50;1.40;;;26.50;82.70;;;;;;5033210;28;20171;-77
2022/06/18 08:13:37;;;;;;;1.88;1.30;;;26.60;82.10;;;;;;5015402;28;20257;-77
2022/06/18 08:16:04;;;;;;;2.20;1.52;;;26.70;81.10;;;;;;5031767;28;20572;-77
2022/06/18 08:18:30;;;;;;;2.83;1.50;;;26.80;82.10;;;;;;5031134;28;20193;-77
2022/06/18 08:21:05;;;;;;;1.67;1.50;;;26.90;81.20;;;;;;5015329;28;20174;-77
2022/06/18 08:23:31;;;;;;;2.45;1.70;;;27.00;78.30;;;;;;5031274;28;20202;-77
2022/06/18 08:25:57;;;;;;;3.25;1.45;;;27.00;79.30;;;;;;5032986;28;20175;-77
2022/06/18 08:28:22;;;;;;;1.60;1.50;;;27.00;78.90;;;;;;5015313;28;20696;-77
2022/06/18 08:30:48;;;;;;;1.50;1.35;;;27.10;78.80;;;;;;5031579;28;20185;-77
2022/06/18 08:33:15;;;;;;;2.33;1.67;;;27.10;79.10;;;;;;5015098;28;20182;-77
2022/06/18 08:35:40;;;;;;;1.90;1.63;;;27.20;79.30;;;;;;5015338;28;20683;-77
2022/06/18 08:38:08;;;;;;;3.63;1.63;;;27.30;80.90;;;;;;5015315;28;20190;-77
2022/06/18 08:40:45;;;;;;;1.65;1.50;;;27.40;79.80;;;;;;5032474;28;20194;-77
2022/06/18 08:43:29;;;;;;;2.50;1.70;;;27.50;79.20;;;;;;5031063;28;20178;-77
2022/06/18 08:46:18;;;;;;;2.78;1.60;;;27.50;78.40;;;;;;5031529;28;20166;-77
2022/06/18 08:48:50;;;;;;;1.73;1.60;;;27.60;76.50;;;;;;5031345;28;20178;-77
2022/06/18 08:51:51;;;;;;;3.45;1.70;;;27.70;75.80;;;;;;5031224;28;20170;-77
2022/06/18 08:54:38;;;;;;;3.38;1.85;;;27.80;75.80;;;;;;5023345;28;20228;-77
2022/06/18 08:57:37;;;;;;;1.98;1.88;;;27.80;77.70;;;;;;5031332;28;20200;-77
2022/06/18 09:00:39;;;;;;;2.55;1.83;;;27.90;76.80;;;;;;5031234;28;20759;-77
2022/06/18 09:03:25;;;;;;;3.97;1.92;;;28.10;77.40;;;;;;5030908;28;20204;-77
2022/06/18 09:06:24;;;;;;;2.72;1.60;;;28.30;76.50;;;;;;5021135;28;20225;-77
2022/06/18 09:09:20;;;;;;;2.13;1.55;;;28.30;76.20;;;;;;5031086;28;20205;-77
2022/06/18 09:11:46;;;;;;;2.80;1.77;;;28.30;76.20;;;;;;5030868;28;20209;-77
2022/06/18 09:14:37;;;;;;;1.80;1.70;;;28.40;75.40;;;;;;5030924;28;20229;-77
2022/06/18 09:17:20;;;;;;;3.88;2.03;;;28.50;73.80;;;;;;5028048;28;20653;-77
2022/06/18 09:19:56;;;;;;;2.38;2.03;;;28.50;74.70;;;;;;5030825;28;20202;-77
2022/06/18 09:22:22;;;;;;;2.80;1.85;;;28.80;76.00;;;;;;5047091;28;20174;-77
2022/06/18 09:24:51;;;;;;;2.60;1.73;;;28.80;74.30;;;;;;5031052;28;20218;-77
2022/06/18 09:27:23;;;;;;;2.55;1.70;;;28.90;74.10;;;;;;5031197;28;20167;-77
2022/06/18 09:30:29;;;;;;;1.73;1.63;;;29.10;73.60;;;;;;5031250;28;20197;-77
2022/06/18 09:33:01;;;;;;;2.55;1.90;;;29.20;73.00;;;;;;5030305;28;20620;-77
2022/06/18 09:35:47;;;;;;;2.63;1.95;;;29.30;73.70;;;;;;5032287;28;20236;-77
2022/06/18 09:38:18;;;;;;;5.05;1.80;;;29.40;73.20;;;;;;5031026;28;20220;-77
2022/06/18 09:41:06;;;;;;;3.60;2.00;;;29.60;72.90;;;;;;5031462;28;20198;-77
2022/06/18 09:43:54;;;;;;;2.53;1.95;;;29.70;72.20;;;;;;5028371;28;20202;-77
2022/06/18 09:46:39;;;;;;;3.40;1.80;;;29.80;71.60;;;;;;5032280;28;20162;-77
2022/06/18 09:49:05;;;;;;;3.50;1.88;;;29.80;70.90;;;;;;5031133;28;20201;-77
2022/06/18 09:52:06;;;;;;;3.38;2.03;;;29.80;72.30;;;;;;5030985;28;20218;-77
2022/06/18 09:54:56;;;;;;;4.38;2.03;;;29.90;70.80;;;;;;5015130;28;20213;-77
2022/06/18 09:57:26;;;;;;;2.55;1.70;;;29.90;70.90;;;;;;5032448;28;20244;-77
2022/06/18 09:59:52;;;;;;;2.00;1.80;;;30.10;70.10;;;;;;5014730;28;20222;-77
2022/06/18 10:02:26;;;;;;;2.40;1.83;;;30.20;70.20;;;;;;5032004;28;20252;-78
2022/06/18 10:07:41;;;;;;;1.98;1.83;;;30.20;70.20;;;;;;5036219;28;20169;-77
2022/06/18 10:10:17;;;;;;;3.05;2.00;;;30.20;69.10;;;;;;5035845;28;20166;-75
2022/06/18 10:12:48;;;;;;;2.70;1.90;;;30.20;69.00;;;;;;5034776;28;20169;-76
2022/06/18 10:15:17;;;;;;;2.65;2.05;;;30.50;68.30;;;;;;5034507;28;20194;-78
2022/06/18 10:17:52;;;;;;;2.85;2.00;;;30.80;69.30;;;;;;5035075;28;20269;-77
2022/06/18 10:20:41;;;;;;;3.60;2.10;;;31.00;68.40;;;;;;5034228;28;20292;-77
2022/06/18 10:26:35;;;;;;;2.90;1.95;;;31.10;65.40;;;;;;5035834;28;20159;-78
2022/06/18 10:29:19;;;;;;;4.18;2.08;;;31.30;67.50;;;;;;5036051;28;20234;-80
2022/06/18 10:32:35;;;;;;;3.92;2.10;;;31.30;65.10;;;;;;5035474;28;20213;-80
2022/06/18 10:35:21;;;;;;;2.88;2.03;;;31.50;66.50;;;;;;5014241;28;20199;-79
2022/06/18 10:37:59;;;;;;;4.05;1.77;;;31.70;64.60;;;;;;4997410;28;20637;-78
2022/06/18 10:40:46;;;;;;;5.75;2.15;;;31.70;62.60;;;;;;5024493;28;20221;-77
2022/06/18 10:43:23;;;;;;;7.40;2.30;;;32.00;64.30;;;;;;5034989;28;20205;-77
2022/06/18 10:46:02;;;;;;;3.88;1.95;;;32.00;61.40;;;;;;5034206;28;20162;-77
2022/06/18 10:48:31;;;;;;;3.92;2.22;;;32.00;61.20;;;;;;5034335;28;20633;-77
2022/06/18 10:50:59;;;;;;;3.53;2.28;;;32.20;60.10;;;;;;5036357;28;20186;-80
2022/06/18 10:53:35;;;;;;;6.03;2.60;;;32.20;60.60;;;;;;5035382;28;20699;-79
2022/06/18 10:56:00;;;;;;;7.20;2.30;;;32.20;59.90;;;;;;5035675;28;20182;-79
2022/06/18 10:58:27;;;;;;;4.85;2.13;;;32.40;59.90;;;;;;5035884;28;20171;-79
2022/06/18 11:01:00;;;;;;;4.35;2.20;;;32.50;59.50;;;;;;5036056;28;20174;-79
2022/06/18 11:03:29;;;;;;;5.05;2.15;;;32.60;59.40;;;;;;5003050;28;20272;-80
2022/06/18 11:05:56;;;;;;;2.55;1.95;;;32.80;58.20;;;;;;5035255;28;20170;-80
2022/06/18 11:08:28;;;;;;;3.50;2.00;;;32.60;58.20;;;;;;5035642;28;20178;-80
2022/06/18 11:11:06;;;;;;;5.22;2.30;;;32.80;59.90;;;;;;5035285;28;20162;-80
2022/06/18 11:13:38;;;;;;;2.95;2.30;;;33.00;57.60;;;;;;5018493;28;20202;-80
2022/06/18 11:16:17;;;;;;;4.25;2.38;;;33.10;56.70;;;;;;5019378;28;20264;-80
2022/06/18 11:18:46;;;;;;;6.57;2.25;;;32.90;56.40;;;;;;5018725;28;20289;-80
2022/06/18 11:21:43;;;;;;;3.70;1.95;;;33.10;57.90;;;;;;5036296;28;20189;-80
2022/06/18 11:24:42;;;;;;;3.85;2.33;;;33.00;55.90;;;;;;5034448;28;20206;-80
2022/06/18 11:27:14;;;;;;;5.00;2.47;;;33.20;57.40;;;;;;5034881;28;20159;-80
2022/06/18 11:29:49;;;;;;;7.38;2.20;;;33.10;54.90;;;;;;5034507;28;20236;-80
2022/06/18 11:32:36;;;;;;;6.22;2.50;;;33.30;56.20;;;;;;5034786;28;20173;-80
2022/06/18 11:35:06;;;;;;;4.85;2.40;;;33.30;55.60;;;;;;5019252;28;20213;-80
2022/06/18 11:37:32;;;;;;;4.55;2.20;;;33.30;55.80;;;;;;5034409;28;20170;-80
2022/06/18 11:40:18;;;;;;;7.88;2.72;;;33.40;56.30;;;;;;5034499;28;20205;-80
2022/06/18 11:42:56;;;;;;;6.40;2.25;;;33.10;53.10;;;;;;5033675;28;20625;-80
2022/06/18 11:45:22;;;;;;;7.25;2.30;;;33.40;53.50;;;;;;5034780;28;20170;-80
2022/06/18 11:48:26;;;;;;;7.70;2.40;;;33.70;54.80;;;;;;5034675;28;20163;-80
2022/06/18 11:51:00;;;;;;;6.78;2.30;;;33.80;52.00;;;;;;5035744;28;20518;-80
2022/06/18 11:54:22;;;;;;;6.97;2.47;;;33.80;51.40;;;;;;5033954;28;20197;-80
2022/06/18 11:56:47;;;;;;;7.38;2.25;;;33.90;51.60;;;;;;5017554;28;20189;-79
2022/06/18 11:59:39;;;;;;;5.63;2.60;;;34.00;50.30;;;;;;5033885;28;20201;-80
2022/06/18 12:02:17;;;;;;;7.45;2.67;;;34.10;50.00;;;;;;5013441;28;20432;-80
2022/06/18 12:05:08;;;;;;;4.60;2.25;;;34.30;49.90;;;;;;5034044;28;20227;-80
2022/06/18 12:07:47;;;;;;;5.72;2.45;;;34.30;48.80;;;;;;5033877;28;20166;-80
2022/06/18 12:10:16;;;;;;;8.45;2.58;;;34.50;50.00;;;;;;5033732;28;20169;-79
2022/06/18 12:13:00;;;;;;;7.15;2.50;;;34.40;48.80;;;;;;5034271;28;20204;-80
2022/06/18 12:16:15;;;;;;;7.03;2.45;;;34.40;49.20;;;;;;5032557;28;20173;-78
2022/06/18 12:19:04;;;;;;;5.90;2.25;;;34.50;49.10;;;;;;4995012;28;20207;-78
2022/06/18 12:21:36;;;;;;;6.55;2.60;;;34.90;49.10;;;;;;5011301;28;20262;-78
2022/06/18 12:24:23;;;;;;;6.15;2.58;;;34.90;48.10;;;;;;5018473;28;20680;-78
2022/06/18 12:27:01;;;;;;;6.85;2.60;;;34.70;48.00;;;;;;5031871;28;20178;-78
2022/06/18 12:29:38;;;;;;;5.63;2.70;;;34.70;47.80;;;;;;5033466;28;20170;-79
2022/06/18 12:32:30;;;;;;;4.88;2.45;;;34.80;47.60;;;;;;5032166;28;20193;-79
2022/06/18 12:35:10;;;;;;;4.72;2.33;;;34.80;47.50;;;;;;5033028;28;20206;-79
2022/06/18 12:38:01;;;;;;;6.43;2.95;;;34.80;48.60;;;;;;5033990;28;20150;-79
2022/06/18 12:40:35;;;;;;;4.95;2.45;;;34.70;48.10;;;;;;5032886;28;20212;-79
2022/06/18 12:43:10;;;;;;;9.70;2.72;;;34.40;48.00;;;;;;5032469;28;20197;-79
2022/06/18 12:45:41;;;;;;;6.60;2.60;;;34.60;48.20;;;;;;5033935;28;20168;-79
2022/06/18 12:48:25;;;;;;;7.97;2.60;;;35.00;48.50;;;;;;5033433;28;20165;-79
2022/06/18 12:50:56;;;;;;;5.95;2.65;;;35.00;46.70;;;;;;5033358;28;20190;-79
2022/06/18 12:53:35;;;;;;;6.13;2.30;;;35.20;47.70;;;;;;5031983;28;20240;-79
2022/06/18 12:56:23;;;;;;;6.72;2.45;;;34.70;46.60;;;;;;5031829;28;20159;-78
2022/06/18 12:59:06;;;;;;;9.45;2.67;;;34.60;47.40;;;;;;5031897;28;20649;-78
2022/06/18 13:01:50;;;;;;;7.68;3.03;;;34.80;46.60;;;;;;5031664;28;20581;-78
2022/06/18 13:04:46;;;;;;;7.72;2.83;;;34.70;46.10;;;;;;5031442;28;20206;-79
2022/06/18 13:07:28;;;;;;;8.25;2.40;;;34.50;46.20;;;;;;5031155;28;20170;-78
2022/06/18 13:10:01;;;;;;;6.88;2.63;;;34.80;46.90;;;;;;5031235;28;20193;-79
2022/06/18 13:13:02;;;;;;;5.07;2.60;;;35.20;47.50;;;;;;5031387;28;20178;-79
2022/06/18 13:15:37;;;;;;;9.57;2.97;;;35.50;46.80;;;;;;5031555;28;20162;-79
2022/06/18 13:18:15;;;;;;;6.25;2.55;;;35.50;45.70;;;;;;5031674;28;20166;-79
2022/06/18 13:20:43;;;;;;;8.70;3.22;;;35.50;44.30;;;;;;5031404;28;20198;-79
2022/06/18 13:29:18;;;;;;;9.45;2.72;;;35.40;43.20;;;;;;5032760;28;20181;-79
2022/06/18 13:31:47;;;;;;;9.05;2.90;;;35.70;43.60;;;;;;5031410;28;20178;-79
2022/06/18 13:34:41;;;;;;;11.30;3.05;;;35.80;42.60;;;;;;5031389;28;20296;-79
2022/06/18 13:37:17;;;;;;;10.50;3.00;;;35.70;42.90;;;;;;5047729;28;20171;-79